ルレオ の空港の天気 - METARとTAF

Lulea / Kallax ( ESPA / LLA ) - スウェーデン ルレオ
飛行場実況気象(Metar)
観測時間02/28 01:20 CET (02/28 00:20 UTC)
風向・風速南東 4m/s
視程3600m
天気現象弱い雪 もや
全天の8割程度の雲 雲底高度 180m
全天を覆う雲 雲底高度 240m
気温-6℃
湿度93%
気圧997hPa
METARESPA 280020Z AUTO 14008KT 3600 -SN BR BKN006/// OVC008/// M06/M07 Q0997
過去の天気等 Google飛行場航空写真 Wunderground天気予報

過去48時間のMETAR

飛行場予報(TAF)
発表時間: 2/27 21:30 CET (2/27 20:30 UTC)
予報対象時間: 27日22時 CET ~ 28日1時 CET
風向・風速南東 5m/s
視程5,000m
天気現象弱い雪
全天を覆う雲 雲底高度 460m
27日22時 CET ~ 28日1時 CET に一時的に
視程1,200m
天気現象
全天を覆う雲 鉛直視程 240m
TAF ESPA 272030Z 2721/2724 14010KT 5000 -SN OVC015
TEMPO 2721/2724 1200 SN VV008